Time;durP1;ratioP1;P1;durP2;ratioP2;P2;SDS_P1;SDS_P2;PMS_P1;PMS_P2;Temp;Humidity;BMP_temperature;BMP_pressure;BME280_temperature;BME280_humidity;BME280_pressure;Samples;Min_cycle;Max_cycle;Signal;HPM_P1;HPM_P2
2022/08/10 00:02:37;;;;;;;3.97;1.60;;;;;;;17.69;71.10;102739.56;4994552;28;20045;-74
2022/08/10 00:05:02;;;;;;;2.55;1.60;;;;;;;17.56;71.18;102737.63;4994394;28;20022;-75
2022/08/10 00:07:28;;;;;;;2.30;1.50;;;;;;;17.43;71.68;102738.28;4994314;28;20028;-72
2022/08/10 00:09:53;;;;;;;4.57;1.58;;;;;;;17.23;72.70;102745.09;4994100;28;20029;-73
2022/08/10 00:12:18;;;;;;;6.95;1.80;;;;;;;17.28;72.97;102746.16;4994171;28;20046;-73
2022/08/10 00:14:44;;;;;;;2.67;1.65;;;;;;;17.35;72.29;102748.88;4994064;28;20034;-72
2022/08/10 00:17:10;;;;;;;2.58;1.40;;;;;;;17.27;73.44;102743.75;4994158;28;20028;-73
2022/08/10 00:19:35;;;;;;;2.03;1.70;;;;;;;17.24;73.16;102742.31;4994204;28;20022;-73
2022/08/10 00:22:00;;;;;;;4.93;1.63;;;;;;;17.41;72.22;102752.56;4993879;28;20054;-74
2022/08/10 00:24:25;;;;;;;2.15;1.60;;;;;;;17.25;73.17;102749.16;4992885;28;20022;-74
2022/08/10 00:26:51;;;;;;;4.72;1.90;;;;;;;17.33;72.76;102751.66;4992934;28;20033;-74
2022/08/10 00:29:16;;;;;;;2.42;1.70;;;;;;;17.34;72.36;102744.63;4992951;28;20038;-74
2022/08/10 00:31:41;;;;;;;4.05;1.63;;;;;;;17.20;73.17;102743.66;4993862;28;20109;-73
2022/08/10 00:34:07;;;;;;;2.15;1.80;;;;;;;17.22;73.17;102743.47;4993833;28;20037;-73
2022/08/10 00:36:32;;;;;;;4.47;1.50;;;;;;;17.47;72.59;102736.94;4994091;28;20076;-74
2022/08/10 00:38:57;;;;;;;2.30;1.70;;;;;;;17.37;72.79;102728.56;4992463;28;20026;-73
2022/08/10 00:41:23;;;;;;;4.75;1.55;;;;;;;17.47;72.43;102736.94;4992541;28;20022;-73
2022/08/10 00:43:48;;;;;;;3.22;1.60;;;;;;;17.17;73.63;102733.56;4993799;28;20058;-73
2022/08/10 00:46:13;;;;;;;1.92;1.60;;;;;;;17.12;73.59;102734.13;4993752;28;20053;-73
2022/08/10 00:48:38;;;;;;;5.10;1.85;;;;;;;17.02;74.24;102724.97;4993873;28;20463;-73
2022/08/10 00:51:04;;;;;;;2.00;1.80;;;;;;;17.17;74.04;102733.56;4993853;28;20034;-74
2022/08/10 00:53:29;;;;;;;3.00;1.70;;;;;;;17.17;74.21;102735.38;4993550;28;20022;-73
2022/08/10 00:55:55;;;;;;;2.35;1.80;;;;;;;17.06;73.92;102741.88;4993796;28;20039;-73
2022/08/10 00:58:21;;;;;;;6.10;2.03;;;;;;;17.02;74.42;102731.00;4994548;28;20077;-73
2022/08/10 01:00:47;;;;;;;5.90;1.80;;;;;;;16.92;75.27;102733.88;4997780;28;20030;-73
2022/08/10 01:03:13;;;;;;;3.85;1.88;;;;;;;16.96;75.11;102736.94;4997774;28;20022;-74
2022/08/10 01:05:54;;;;;;;3.58;1.60;;;;;;;17.25;74.10;102728.25;4996279;28;20027;-73
2022/08/10 01:08:39;;;;;;;2.70;1.90;;;;;;;17.19;73.70;102728.97;4997571;28;20080;-74
2022/08/10 01:11:21;;;;;;;2.38;1.83;;;;;;;16.77;75.44;102727.03;4997513;28;20112;-74
2022/08/10 01:13:59;;;;;;;5.25;1.98;;;;;;;16.90;75.29;102724.63;4997481;28;20024;-73
2022/08/10 01:16:36;;;;;;;4.18;1.85;;;;;;;16.84;75.61;102727.94;4997286;28;20034;-74
2022/08/10 01:19:27;;;;;;;4.30;2.10;;;;;;;16.63;75.89;102698.13;4997244;28;20019;-74
2022/08/10 01:22:14;;;;;;;2.75;1.90;;;;;;;16.91;75.42;102731.44;4995794;28;20136;-72
2022/08/10 01:25:03;;;;;;;3.67;1.90;;;;;;;16.77;76.69;102725.22;4997243;28;20022;-73
2022/08/10 01:28:10;;;;;;;3.63;1.80;;;;;;;16.84;75.98;102714.91;4997184;28;20053;-74
2022/08/10 01:30:38;;;;;;;3.13;1.95;;;;;;;16.85;75.89;102712.09;4988910;28;20130;-74
2022/08/10 01:33:17;;;;;;;3.05;2.08;;;;;;;16.73;76.40;102713.50;4995747;28;20054;-74
2022/08/10 01:35:58;;;;;;;3.97;2.20;;;;;;;16.75;76.88;102713.34;4996939;28;20081;-74
2022/08/10 01:38:30;;;;;;;4.15;1.90;;;;;;;16.80;76.65;102716.22;4996839;28;20026;-74
2022/08/10 01:41:03;;;;;;;2.65;1.85;;;;;;;16.94;76.37;102717.22;4996966;28;20057;-74
2022/08/10 01:43:30;;;;;;;4.28;2.15;;;;;;;16.56;77.69;102710.28;4995619;28;20030;-73
2022/08/10 01:46:00;;;;;;;3.83;2.03;;;;;;;16.78;76.81;102707.78;4995529;28;20026;-74
2022/08/10 01:48:37;;;;;;;3.88;2.08;;;;;;;16.85;76.83;102712.09;4996724;28;20524;-74
2022/08/10 01:51:25;;;;;;;3.45;1.95;;;;;;;16.88;76.84;102714.34;4995415;28;20082;-75
2022/08/10 01:54:01;;;;;;;3.92;2.20;;;;;;;16.78;77.35;102715.63;4995405;28;20026;-74
2022/08/10 01:56:29;;;;;;;3.65;2.10;;;;;;;16.72;77.20;102703.28;4996595;28;20026;-74
2022/08/10 01:59:00;;;;;;;3.95;2.33;;;;;;;16.86;77.60;102716.34;4995299;28;20445;-74
2022/08/10 02:01:28;;;;;;;3.40;2.38;;;;;;;16.65;77.75;102717.00;4996572;28;20026;-73
2022/08/10 02:03:57;;;;;;;4.25;2.35;;;;;;;16.64;78.27;102707.56;4995434;28;20434;-74
2022/08/10 02:06:25;;;;;;;3.53;2.20;;;;;;;16.79;77.66;102717.25;4996756;28;20097;-74
2022/08/10 02:08:53;;;;;;;3.42;2.28;;;;;;;16.60;78.52;102705.50;4996265;28;20014;-73
2022/08/10 02:11:21;;;;;;;2.60;2.30;;;;;;;16.63;78.94;102702.53;4996294;28;20080;-74
2022/08/10 02:13:48;;;;;;;4.10;2.60;;;;;;;16.59;79.11;102701.28;4996394;28;20117;-74
2022/08/10 02:16:18;;;;;;;3.72;2.40;;;;;;;16.67;78.86;102706.41;4996235;28;20192;-73
2022/08/10 02:18:45;;;;;;;3.90;2.30;;;;;;;16.35;80.53;102705.75;4996053;28;20027;-74
2022/08/10 02:21:11;;;;;;;3.67;2.60;;;;;;;16.51;80.63;102711.78;4996443;28;20387;-74
2022/08/10 02:23:39;;;;;;;3.78;2.47;;;;;;;16.30;81.29;102707.28;4995959;28;20053;-74
2022/08/10 02:26:07;;;;;;;5.20;2.60;;;;;;;16.36;81.43;102704.75;4996188;28;20042;-74
2022/08/10 02:28:34;;;;;;;3.83;2.58;;;;;;;16.46;81.78;102705.31;4995969;28;20102;-74
2022/08/10 02:31:15;;;;;;;4.85;2.85;;;;;;;16.52;80.84;102698.59;4995977;28;20077;-74
2022/08/10 02:33:45;;;;;;;6.25;3.10;;;;;;;16.33;82.07;102710.34;4995825;28;20046;-74
2022/08/10 02:36:10;;;;;;;3.67;2.72;;;;;;;16.38;82.38;102699.38;4995942;28;20037;-74
2022/08/10 02:38:49;;;;;;;5.63;2.70;;;;;;;16.36;82.50;102703.97;4995743;28;20030;-74
2022/08/10 02:41:30;;;;;;;4.68;2.90;;;;;;;16.27;83.35;102705.84;4995702;28;20045;-74
2022/08/10 02:44:04;;;;;;;4.22;2.75;;;;;;;16.10;84.36;102701.75;4995614;28;20035;-74
2022/08/10 02:46:38;;;;;;;6.97;3.13;;;;;;;16.01;85.16;102708.84;4994443;28;20033;-74
2022/08/10 02:49:04;;;;;;;5.55;2.80;;;;;;;16.13;85.23;102697.00;4995648;28;20027;-74
2022/08/10 02:51:48;;;;;;;5.40;2.90;;;;;;;16.03;85.94;102693.84;4995545;28;20037;-74
2022/08/10 02:54:19;;;;;;;3.70;3.08;;;;;;;16.24;84.80;102693.16;4995364;28;20031;-74
2022/08/10 02:56:53;;;;;;;6.68;3.40;;;;;;;16.26;85.07;102696.41;4995658;28;20026;-74
2022/08/10 02:59:22;;;;;;;5.93;3.17;;;;;;;16.33;84.86;102686.06;4995400;28;20080;-74
2022/08/10 03:01:53;;;;;;;4.03;3.33;;;;;;;16.18;85.40;102691.25;4994069;28;20165;-74
2022/08/10 03:04:47;;;;;;;6.90;3.30;;;;;;;16.42;84.66;102685.78;4995294;28;20049;-73
2022/08/10 03:07:16;;;;;;;6.07;3.50;;;;;;;16.27;86.21;102687.56;4993929;28;20042;-74
2022/08/10 03:09:44;;;;;;;7.63;3.67;;;;;;;16.42;85.16;102684.97;4995161;28;20023;-74
2022/08/10 03:12:12;;;;;;;8.07;3.90;;;;;;;16.38;85.20;102675.91;4995168;28;20080;-74
2022/08/10 03:14:39;;;;;;;5.70;3.42;;;;;;;16.35;85.02;102673.66;4993875;28;20026;-74
2022/08/10 03:17:07;;;;;;;5.15;3.70;;;;;;;16.32;85.91;102687.84;4995074;28;20044;-74
2022/08/10 03:19:35;;;;;;;9.75;3.80;;;;;;;16.35;86.24;102686.69;4995107;28;20037;-74
2022/08/10 03:22:02;;;;;;;8.18;3.80;;;;;;;16.39;85.78;102686.13;4994122;28;20125;-74
2022/08/10 03:24:29;;;;;;;5.65;4.05;;;;;;;16.37;85.92;102676.88;4993633;28;20019;-74
2022/08/10 03:26:56;;;;;;;5.50;3.90;;;;;;;16.15;87.37;102684.59;4993727;28;20069;-74
2022/08/10 03:29:22;;;;;;;5.75;4.18;;;;;;;16.21;87.87;102677.84;4994752;28;20530;-74
2022/08/10 03:31:49;;;;;;;7.25;4.50;;;;;;;16.27;87.62;102684.16;4994851;28;20030;-74
2022/08/10 03:34:17;;;;;;;6.03;4.13;;;;;;;16.18;87.70;102678.22;4994886;28;20466;-74
2022/08/10 03:36:43;;;;;;;10.25;4.88;;;;;;;16.26;87.63;102677.34;4994681;28;20026;-74
2022/08/10 03:39:09;;;;;;;6.47;4.30;;;;;;;16.34;87.44;102677.22;5009708;28;20125;-74
2022/08/10 03:41:37;;;;;;;9.48;4.35;;;;;;;16.39;87.49;102675.69;4994565;28;20088;-74
2022/08/10 03:44:05;;;;;;;6.65;4.40;;;;;;;16.37;87.11;102671.66;4993297;28;20029;-74
2022/08/10 03:46:33;;;;;;;5.95;4.63;;;;;;;16.43;86.90;102668.34;4994695;28;20026;-74
2022/08/10 03:49:02;;;;;;;6.32;4.63;;;;;;;16.25;87.65;102676.50;4993300;28;20442;-74
2022/08/10 03:51:28;;;;;;;7.72;4.72;;;;;;;16.29;87.41;102676.97;4994367;28;20026;-74
2022/08/10 03:53:54;;;;;;;6.40;4.60;;;;;;;16.24;88.23;102660.03;4994434;28;20062;-74
2022/08/10 03:56:21;;;;;;;6.70;4.78;;;;;;;16.28;88.09;102672.72;4994440;28;20049;-74
2022/08/10 03:58:46;;;;;;;9.98;4.90;;;;;;;16.26;88.76;102672.13;4994377;28;20018;-74
2022/08/10 04:01:14;;;;;;;6.88;5.18;;;;;;;16.16;88.19;102670.56;4993145;28;20033;-74
2022/08/10 04:03:40;;;;;;;7.32;5.10;;;;;;;16.21;88.91;102675.25;4994508;28;20030;-74
2022/08/10 04:06:06;;;;;;;10.43;5.10;;;;;;;16.21;88.24;102665.63;4992996;28;20026;-74
2022/08/10 04:08:31;;;;;;;8.82;5.35;;;;;;;16.28;88.88;102667.50;4994113;28;20395;-74
2022/08/10 04:10:57;;;;;;;7.57;5.07;;;;;;;16.28;88.38;102663.09;4994120;28;20033;-74
2022/08/10 04:13:22;;;;;;;10.27;5.38;;;;;;;16.25;88.59;102660.84;4994078;28;20029;-74
2022/08/10 04:15:48;;;;;;;10.77;5.60;;;;;;;16.18;89.13;102668.59;4992887;28;20500;-74
2022/08/10 04:18:13;;;;;;;9.18;5.70;;;;;;;16.07;89.94;102666.41;4994051;28;20514;-74
2022/08/10 04:20:48;;;;;;;8.68;5.93;;;;;;;16.08;89.65;102677.66;4992822;28;20102;-75
2022/08/10 04:23:25;;;;;;;8.60;5.68;;;;;;;16.13;89.38;102673.53;4992531;28;20045;-74
2022/08/10 04:25:51;;;;;;;7.55;5.90;;;;;;;16.24;89.36;102672.28;4993939;28;20026;-74
2022/08/10 04:28:17;;;;;;;11.00;6.00;;;;;;;16.23;89.12;102675.91;4993949;28;20035;-74
2022/08/10 04:30:44;;;;;;;7.80;6.00;;;;;;;16.19;89.19;102672.00;4993801;28;20033;-74
2022/08/10 04:33:12;;;;;;;8.63;5.63;;;;;;;16.23;89.39;102681.09;4993870;28;20053;-74
2022/08/10 04:35:38;;;;;;;11.27;6.30;;;;;;;16.11;89.59;102674.69;4993844;28;20116;-74
2022/08/10 04:38:04;;;;;;;9.88;5.90;;;;;;;16.26;89.95;102680.75;4994010;28;20057;-74
2022/08/10 04:40:30;;;;;;;7.85;5.80;;;;;;;16.28;89.14;102672.72;4993798;28;20133;-74
2022/08/10 04:43:04;;;;;;;13.57;6.18;;;;;;;16.17;90.18;102673.97;4992526;28;20066;-73
2022/08/10 04:45:30;;;;;;;9.55;6.28;;;;;;;16.27;90.09;102674.53;4993767;28;20032;-74
2022/08/10 04:47:56;;;;;;;8.95;6.28;;;;;;;16.11;90.58;102672.06;4993732;28;20018;-74
2022/08/10 04:50:21;;;;;;;10.48;6.35;;;;;;;16.10;91.10;102668.66;4993612;28;20027;-74
2022/08/10 04:52:46;;;;;;;9.23;6.25;;;;;;;16.22;90.52;102669.03;4993814;28;20101;-74
2022/08/10 04:55:12;;;;;;;10.35;6.43;;;;;;;16.36;89.94;102663.03;4995197;28;20089;-75
2022/08/10 04:57:37;;;;;;;19.58;6.32;;;;;;;16.41;89.66;102665.09;5009436;28;20045;-74
2022/08/10 05:00:04;;;;;;;11.68;6.32;;;;;;;16.47;89.31;102667.78;5000964;28;20030;-72
2022/08/10 05:02:29;;;;;;;8.57;6.38;;;;;;;16.55;88.74;102668.72;4994427;28;20105;-73
2022/08/10 05:04:54;;;;;;;9.30;6.53;;;;;;;16.27;89.87;102676.34;4993256;28;20084;-74
2022/08/10 05:07:19;;;;;;;9.40;6.10;;;;;;;16.24;90.05;102670.47;4994659;28;20037;-74
2022/08/10 05:09:46;;;;;;;9.90;6.50;;;;;;;16.36;90.36;102670.03;4998534;28;20041;-73
2022/08/10 05:12:12;;;;;;;10.18;6.75;;;;;;;16.45;89.51;102669.75;5002961;28;20196;-73
2022/08/10 05:14:37;;;;;;;10.57;6.40;;;;;;;16.64;89.07;102678.06;4992566;28;20478;-73
2022/08/10 05:17:02;;;;;;;13.32;7.05;;;;;;;16.67;88.91;102670.66;4992779;28;20117;-74
2022/08/10 05:19:27;;;;;;;13.13;6.72;;;;;;;16.68;88.94;102674.09;4995009;28;20022;-73
2022/08/10 05:21:53;;;;;;;10.75;6.35;;;;;;;16.64;88.28;102667.63;4998635;28;20074;-74
2022/08/10 05:24:18;;;;;;;12.13;7.13;;;;;;;16.67;88.27;102675.09;4994615;28;20034;-74
2022/08/10 05:26:44;;;;;;;10.48;6.53;;;;;;;16.82;88.28;102675.91;4996896;28;20053;-73
2022/08/10 05:29:09;;;;;;;9.52;6.55;;;;;;;16.71;89.02;102676.31;4992857;28;20033;-73
2022/08/10 05:31:35;;;;;;;12.05;7.10;;;;;;;16.92;88.63;102686.88;4993529;28;20030;-73
2022/08/10 05:34:00;;;;;;;8.88;6.57;;;;;;;16.97;87.58;102686.31;4993347;28;20105;-73
2022/08/10 05:36:27;;;;;;;11.43;6.95;;;;;;;16.92;88.36;102686.88;4993452;28;20026;-73
2022/08/10 05:38:53;;;;;;;10.77;6.53;;;;;;;17.02;88.31;102676.13;4993131;28;20027;-73
2022/08/10 05:41:19;;;;;;;9.88;6.30;;;;;;;17.09;87.49;102681.44;4993308;28;20475;-73
2022/08/10 05:43:44;;;;;;;9.10;6.72;;;;;;;17.07;87.77;102676.41;4992290;28;20084;-73
2022/08/10 05:46:09;;;;;;;11.07;6.57;;;;;;;17.13;87.10;102688.72;4995529;28;20033;-74
2022/08/10 05:48:37;;;;;;;10.55;6.55;;;;;;;17.22;87.06;102691.22;4996582;28;20164;-73
2022/08/10 05:51:03;;;;;;;12.23;6.55;;;;;;;17.13;87.62;102686.13;4997866;28;20030;-73
2022/08/10 05:53:28;;;;;;;10.23;6.78;;;;;;;17.42;86.31;102683.59;4996234;28;20026;-74
2022/08/10 05:55:54;;;;;;;10.70;6.65;;;;;;;17.48;86.55;102683.66;4996754;28;20494;-74
2022/08/10 05:58:20;;;;;;;15.13;6.70;;;;;;;17.31;86.84;102692.72;4995318;28;20026;-74
2022/08/10 06:00:53;;;;;;;10.48;6.45;;;;;;;17.40;86.06;102672.50;4997042;28;20110;-74
2022/08/10 06:03:25;;;;;;;9.57;6.30;;;;;;;17.97;84.75;102690.75;4996992;28;20153;-74
2022/08/10 06:05:54;;;;;;;14.95;6.55;;;;;;;21.47;72.27;102691.38;4996417;28;20029;-74
2022/08/10 06:08:22;;;;;;;8.30;5.45;;;;;;;26.48;50.83;102691.97;4996204;28;20048;-74
2022/08/10 06:10:52;;;;;;;7.38;4.80;;;;;;;27.24;49.64;102684.00;4996321;28;20026;-75
2022/08/10 06:16:09;;;;;;;7.82;4.65;;;;;;;27.25;47.52;102685.63;4996621;28;20076;-74
2022/08/10 06:18:36;;;;;;;6.28;4.35;;;;;;;28.70;44.23;102681.56;4996236;28;20037;-76
2022/08/10 06:21:02;;;;;;;8.43;4.70;;;;;;;27.35;46.33;102684.88;4994709;28;20371;-74
2022/08/10 06:23:29;;;;;;;6.05;4.70;;;;;;;28.48;45.08;102679.13;4995821;28;20082;-74
2022/08/10 06:25:55;;;;;;;5.95;4.55;;;;;;;29.13;42.93;102684.03;4996029;28;20038;-74
2022/08/10 06:28:22;;;;;;;6.43;4.30;;;;;;;28.47;44.43;102682.06;4995847;28;20029;-74
2022/08/10 06:30:51;;;;;;;8.40;4.57;;;;;;;29.51;42.28;102669.34;4994494;28;20433;-74
2022/08/10 06:33:18;;;;;;;5.57;4.28;;;;;;;30.19;40.56;102676.06;4996234;28;20030;-75
2022/08/10 06:35:47;;;;;;;5.60;3.92;;;;;;;29.92;40.18;102671.91;4998142;28;20033;-75
2022/08/10 06:38:15;;;;;;;9.40;4.00;;;;;;;31.73;37.46;102684.50;4996156;28;20030;-73
2022/08/10 06:40:44;;;;;;;7.07;3.97;;;;;;;31.42;37.79;102673.38;4995969;28;20105;-74
2022/08/10 06:43:14;;;;;;;6.00;4.13;;;;;;;30.93;38.20;102679.63;4994484;28;20034;-74
2022/08/10 06:45:46;;;;;;;10.98;4.00;;;;;;;31.81;37.22;102675.84;4994475;28;20081;-74
2022/08/10 06:48:14;;;;;;;;;;;;;;;32.61;35.76;102674.28;4994962;28;20105;-74
2022/08/10 06:50:47;;;;;;;7.18;3.65;;;;;;;33.59;33.93;102671.56;4995895;28;19917;-74
2022/08/10 06:53:16;;;;;;;7.22;3.67;;;;;;;31.66;36.61;102676.81;4995552;28;20030;-75
2022/08/10 06:55:47;;;;;;;6.40;3.78;;;;;;;33.12;33.84;102673.50;4993397;28;20088;-74
2022/08/10 06:58:14;;;;;;;5.32;3.58;;;;;;;32.60;34.60;102678.06;4995396;28;20062;-75
2022/08/10 07:00:42;;;;;;;4.78;3.70;;;;;;;33.49;33.92;102677.06;4994215;28;20018;-74
2022/08/10 07:03:10;;;;;;;5.20;3.20;;;;;;;33.55;33.81;102680.47;4994285;28;20113;-75
2022/08/10 07:05:43;;;;;;;5.95;3.40;;;;;;;33.97;32.69;102682.03;5002231;28;20560;-75
2022/08/10 07:08:09;;;;;;;8.05;3.70;;;;;;;34.47;32.12;102675.88;4993839;28;20014;-75
2022/08/10 07:10:36;;;;;;;9.90;3.78;;;;;;;34.06;32.34;102682.94;4992712;28;20026;-75
2022/08/10 07:13:03;;;;;;;8.98;3.60;;;;;;;31.85;36.68;102678.75;4994740;28;20026;-75
2022/08/10 07:15:30;;;;;;;7.25;3.72;;;;;;;31.02;37.26;102684.09;4993701;28;20109;-74
2022/08/10 07:17:56;;;;;;;7.65;3.63;;;;;;;32.31;35.45;102678.19;4993532;28;20403;-75
2022/08/10 07:20:23;;;;;;;6.45;3.88;;;;;;;31.92;35.72;102679.25;4994475;28;20449;-74
2022/08/10 07:22:51;;;;;;;8.40;3.38;;;;;;;32.96;34.02;102672.91;4995914;28;20046;-74
2022/08/10 07:25:20;;;;;;;6.10;3.42;;;;;;;33.12;34.53;102680.75;4993217;28;20070;-74
2022/08/10 07:27:46;;;;;;;7.78;3.45;;;;;;;33.48;33.61;102681.66;4994807;28;20148;-74
2022/08/10 07:30:11;;;;;;;7.07;3.65;;;;;;;31.59;35.60;102671.03;4995503;28;20486;-81
2022/08/10 07:32:40;;;;;;;6.53;3.33;;;;;;;32.77;34.34;102672.16;4994493;28;20037;-74
2022/08/10 07:35:08;;;;;;;5.30;3.20;;;;;;;33.15;33.65;102664.88;4993475;28;20034;-74
2022/08/10 07:37:36;;;;;;;5.75;3.22;;;;;;;33.42;33.69;102661.41;4994649;28;20022;-74
2022/08/10 07:40:03;;;;;;;5.70;3.70;;;;;;;33.36;33.99;102675.19;4994720;28;20076;-74
2022/08/10 07:42:31;;;;;;;5.63;3.53;;;;;;;33.03;33.92;102678.72;4993258;28;20130;-74
2022/08/10 07:44:57;;;;;;;6.82;3.70;;;;;;;33.03;34.25;102680.59;4994455;28;20081;-74
2022/08/10 07:47:27;;;;;;;5.18;3.42;;;;;;;32.27;35.27;102677.19;4994536;28;20038;-74
2022/08/10 07:49:56;;;;;;;9.27;3.83;;;;;;;31.52;36.44;102681.25;4994392;28;20441;-74
2022/08/10 07:52:22;;;;;;;8.18;3.20;;;;;;;31.37;36.45;102684.09;4994305;28;20467;-74
2022/08/10 07:54:51;;;;;;;5.40;3.30;;;;;;;29.93;39.10;102678.84;4992913;28;20112;-74
2022/08/10 07:57:22;;;;;;;4.82;3.50;;;;;;;28.05;41.65;102682.94;4994371;28;20029;-73
2022/08/10 07:59:54;;;;;;;5.88;3.50;;;;;;;26.74;45.10;102687.78;4994626;28;20077;-74
2022/08/10 08:02:26;;;;;;;5.07;3.00;;;;;;;26.99;45.37;102689.88;4994379;28;20096;-74
2022/08/10 08:04:53;;;;;;;5.53;3.08;;;;;;;27.45;44.82;102690.28;4994227;28;20049;-74
2022/08/10 08:07:20;;;;;;;4.40;2.65;;;;;;;25.99;47.83;102683.94;4997013;28;20106;-78
2022/08/10 08:09:48;;;;;;;10.82;3.15;;;;;;;26.99;45.93;102695.97;4994891;28;20474;-72
2022/08/10 08:12:14;;;;;;;3.92;2.65;;;;;;;27.73;44.65;102685.66;4994225;28;20018;-73
2022/08/10 08:14:42;;;;;;;6.28;2.80;;;;;;;27.12;44.87;102676.19;4994235;28;20022;-75
2022/08/10 08:17:09;;;;;;;3.95;2.40;;;;;;;27.80;42.83;102684.41;4994032;28;20498;-73
2022/08/10 08:19:36;;;;;;;9.00;2.45;;;;;;;27.75;42.81;102667.63;4998027;28;20121;-74
2022/08/10 08:22:02;;;;;;;3.38;2.00;;;;;;;27.40;42.99;102680.41;4994311;28;20055;-74
2022/08/10 08:24:30;;;;;;;6.28;2.08;;;;;;;27.47;43.61;102674.88;4993954;28;20474;-74
2022/08/10 08:26:58;;;;;;;5.05;2.05;;;;;;;27.73;44.48;102669.72;4994056;28;20023;-74
2022/08/10 08:29:24;;;;;;;7.18;2.40;;;;;;;28.31;41.34;102674.00;4992635;28;20018;-74
2022/08/10 08:31:50;;;;;;;4.93;2.10;;;;;;;29.09;40.98;102680.28;4993859;28;20037;-74
2022/08/10 08:34:16;;;;;;;4.00;2.13;;;;;;;28.93;40.73;102674.16;4994020;28;20105;-74
2022/08/10 08:36:43;;;;;;;3.38;1.80;;;;;;;28.20;42.17;102676.91;4992689;28;20022;-73
2022/08/10 08:39:10;;;;;;;4.10;2.25;;;;;;;27.34;43.19;102668.16;4993747;28;20022;-74
2022/08/10 08:42:04;;;;;;;4.25;1.88;;;;;;;27.96;42.09;102671.19;4992514;28;20454;-73
2022/08/10 08:44:50;;;;;;;3.92;1.90;;;;;;;28.36;41.49;102667.91;4993828;28;20018;-73
2022/08/10 08:47:37;;;;;;;3.90;2.00;;;;;;;28.32;41.55;102658.84;4994085;28;20490;-74
2022/08/10 08:50:18;;;;;;;5.32;1.90;;;;;;;29.13;39.63;102674.16;4992607;28;20030;-74
2022/08/10 08:53:08;;;;;;;6.25;2.20;;;;;;;28.50;40.04;102662.91;4994009;28;20035;-74
2022/08/10 08:55:44;;;;;;;4.80;2.10;;;;;;;29.25;39.12;102668.56;4993879;28;20033;-73
2022/08/10 08:58:21;;;;;;;5.45;1.70;;;;;;;29.19;39.42;102659.00;4994072;28;20030;-74
2022/08/10 09:01:18;;;;;;;4.45;2.00;;;;;;;29.32;38.34;102670.94;4992475;28;20456;-73
2022/08/10 09:04:16;;;;;;;2.78;1.60;;;;;;;28.25;39.64;102668.91;4999548;28;20018;-73
2022/08/10 09:06:51;;;;;;;6.90;1.85;;;;;;;29.20;39.21;102664.06;4990857;28;20042;-74
2022/08/10 09:09:31;;;;;;;5.80;2.00;;;;;;;29.46;38.76;102659.50;4992410;28;20026;-74
2022/08/10 09:12:05;;;;;;;5.13;1.80;;;;;;;29.83;38.60;102653.00;4993506;28;20026;-74
2022/08/10 09:14:43;;;;;;;6.53;1.80;;;;;;;30.49;37.27;102651.91;4992299;28;20501;-74
2022/08/10 09:17:14;;;;;;;4.55;1.60;;;;;;;30.08;36.99;102654.78;4997501;28;20062;-75
2022/08/10 09:20:00;;;;;;;5.00;2.00;;;;;;;29.47;37.15;102649.66;4994716;28;20030;-74
2022/08/10 09:22:36;;;;;;;3.90;1.70;;;;;;;29.59;36.82;102650.13;4996453;28;20433;-74
2022/08/10 09:25:15;;;;;;;7.57;2.05;;;;;;;30.32;36.42;102643.47;4997335;28;20026;-74
2022/08/10 09:27:44;;;;;;;4.18;1.83;;;;;;;30.16;36.38;102645.41;4997134;28;20045;-74
2022/08/10 09:30:15;;;;;;;4.57;1.88;;;;;;;29.43;37.48;102644.06;4997113;28;20041;-74
2022/08/10 09:32:52;;;;;;;3.22;1.60;;;;;;;30.48;35.92;102634.31;4997084;28;20022;-74
2022/08/10 09:35:26;;;;;;;3.22;1.65;;;;;;;30.77;35.68;102637.03;4995809;28;20027;-74
2022/08/10 09:38:16;;;;;;;2.72;1.50;;;;;;;31.19;34.96;102634.84;4996880;28;20026;-74
2022/08/10 09:40:55;;;;;;;11.02;1.70;;;;;;;31.29;34.55;102633.94;4995764;28;20022;-74
2022/08/10 09:43:38;;;;;;;3.53;1.40;;;;;;;30.36;34.79;102636.53;4995601;28;20038;-75
2022/08/10 09:46:41;;;;;;;3.60;1.35;;;;;;;30.90;32.11;102634.81;4996760;28;20089;-74
2022/08/10 09:49:40;;;;;;;5.72;1.80;;;;;;;29.62;37.04;102619.50;4996738;28;20054;-74
2022/08/10 09:52:20;;;;;;;5.28;1.77;;;;;;;30.72;34.69;102620.28;4996869;28;20478;-74
2022/08/10 09:55:35;;;;;;;3.17;1.40;;;;;;;31.16;34.52;102622.03;4996489;28;20034;-73
2022/08/10 09:58:26;;;;;;;3.00;1.50;;;;;;;31.14;33.33;102610.84;4970188;28;20430;-73
2022/08/10 10:01:19;;;;;;;4.25;1.50;;;;;;;31.19;32.87;102606.25;4996543;28;20037;-73
2022/08/10 10:03:54;;;;;;;7.13;1.55;;;;;;;30.24;34.35;102607.56;4996435;28;20541;-74
2022/08/10 10:06:26;;;;;;;4.18;1.55;;;;;;;29.99;34.87;102597.78;4996366;28;20347;-74
2022/08/10 10:08:55;;;;;;;5.47;1.73;;;;;;;31.25;33.38;102607.78;4996473;28;20027;-74
2022/08/10 10:11:28;;;;;;;8.18;1.50;;;;;;;31.18;32.81;102579.81;4995041;28;20022;-73
2022/08/10 10:14:06;;;;;;;3.63;1.70;;;;;;;30.67;32.64;102601.63;4996185;28;20085;-74
2022/08/10 10:17:01;;;;;;;5.65;1.50;;;;;;;30.97;33.21;102592.59;4996258;28;20491;-73
2022/08/10 10:19:38;;;;;;;5.07;1.60;;;;;;;30.52;34.16;102598.00;4996063;28;20026;-73
2022/08/10 10:22:25;;;;;;;5.63;1.60;;;;;;;31.25;33.62;102583.75;4994992;28;20089;-73
2022/08/10 10:24:57;;;;;;;7.10;1.80;;;;;;;30.92;33.05;102593.44;4996267;28;20022;-74
2022/08/10 10:27:39;;;;;;;3.63;1.63;;;;;;;30.79;33.71;102584.22;4996202;28;20101;-73
2022/08/10 10:30:09;;;;;;;3.55;1.55;;;;;;;30.69;32.42;102586.13;4996039;28;20030;-73
2022/08/10 10:32:53;;;;;;;4.22;1.40;;;;;;;30.37;33.55;102581.31;4995927;28;20371;-73
2022/08/10 10:35:36;;;;;;;4.22;1.60;;;;;;;31.19;32.80;102576.09;4994759;28;20040;-74
2022/08/10 10:38:05;;;;;;;2.42;1.38;;;;;;;31.76;32.30;102571.69;4995888;28;20018;-74
2022/08/10 10:40:44;;;;;;;3.05;1.33;;;;;;;31.99;31.75;102567.38;4994533;28;20049;-73
2022/08/10 10:43:41;;;;;;;3.10;1.40;;;;;;;30.80;31.37;102556.44;4995735;28;20023;-73
2022/08/10 10:46:14;;;;;;;4.07;1.30;;;;;;;31.19;31.84;102565.41;4994416;28;20500;-73
2022/08/10 10:49:19;;;;;;;3.90;1.45;;;;;;;31.81;31.24;102560.91;4995708;28;20022;-74
2022/08/10 10:52:26;;;;;;;5.90;1.60;;;;;;;31.70;31.65;102554.91;4995614;28;20030;-76
2022/08/10 10:54:54;;;;;;;2.90;1.40;;;;;;;30.69;32.79;102560.25;4975807;28;20121;-74
2022/08/10 10:57:51;;;;;;;5.38;1.63;;;;;;;30.62;31.99;102551.00;4995619;28;20041;-74
2022/08/10 11:00:22;;;;;;;3.42;1.40;;;;;;;31.32;31.65;102546.03;4975168;28;20042;-74
2022/08/10 11:03:22;;;;;;;2.60;1.40;;;;;;;31.06;32.04;102544.72;4994288;28;20113;-74
2022/08/10 11:05:50;;;;;;;2.78;1.40;;;;;;;31.28;31.54;102544.22;4994038;28;20033;-75
2022/08/10 11:08:23;;;;;;;4.07;1.55;;;;;;;30.80;32.42;102543.09;4995324;28;20073;-74
2022/08/10 11:10:55;;;;;;;8.70;1.60;;;;;;;31.87;31.10;102533.03;4993850;28;20519;-74
2022/08/10 11:13:26;;;;;;;3.53;1.40;;;;;;;31.55;30.73;102536.41;4995147;28;20033;-74
2022/08/10 11:16:02;;;;;;;4.03;1.52;;;;;;;32.22;30.41;102530.16;4995084;28;20030;-72
2022/08/10 11:18:42;;;;;;;6.40;1.40;;;;;;;32.37;30.15;102537.94;4995019;28;20049;-75
2022/08/10 11:21:32;;;;;;;3.83;1.30;;;;;;;32.50;30.11;102525.69;4993762;28;20022;-75
2022/08/10 11:24:30;;;;;;;3.53;1.42;;;;;;;32.17;29.90;102525.69;4993672;28;20038;-73
2022/08/10 11:27:40;;;;;;;6.45;1.58;;;;;;;30.86;31.81;102525.16;4994948;28;20076;-75
2022/08/10 11:30:09;;;;;;;4.15;1.60;;;;;;;32.02;29.47;102526.69;4954002;29;20110;-74
2022/08/10 11:33:13;;;;;;;6.35;1.80;;;;;;;32.52;29.50;102518.19;4937818;29;20527;-73
2022/08/10 11:36:03;;;;;;;3.42;1.38;;;;;;;32.00;30.60;102518.19;4994890;28;20038;-74
2022/08/10 11:38:48;;;;;;;7.05;1.50;;;;;;;31.11;31.18;102515.31;4994566;28;20034;-73
2022/08/10 11:41:40;;;;;;;5.57;1.30;;;;;;;31.59;30.97;102516.06;4994692;28;20018;-73
2022/08/10 11:44:33;;;;;;;2.13;1.40;;;;;;;31.99;30.27;102511.25;4994266;28;20034;-73
2022/08/10 11:47:12;;;;;;;1.92;1.40;;;;;;;31.59;30.41;102516.06;4994346;28;20032;-73
2022/08/10 11:49:58;;;;;;;2.38;1.40;;;;;;;32.33;29.67;102502.94;4994419;28;20096;-73
2022/08/10 11:53:01;;;;;;;6.05;1.48;;;;;;;32.53;28.81;102504.50;4994716;28;20024;-73